createdAt,value
2019-03-04T00:01:30.936Z,3.97
2019-03-04T00:03:59.356Z,4.07
2019-03-04T00:06:27.745Z,4.23
2019-03-04T00:08:56.184Z,3.93
2019-03-04T00:11:24.656Z,4.03
2019-03-04T00:13:53.083Z,4.63
2019-03-04T00:16:21.477Z,3.97
2019-03-04T00:18:49.973Z,4.20
2019-03-04T00:21:18.357Z,4.13
2019-03-04T00:23:46.789Z,4.23
2019-03-04T00:26:15.181Z,4.27
2019-03-04T00:28:44.066Z,4.20
2019-03-04T00:31:12.448Z,4.00
2019-03-04T00:33:40.877Z,4.37
2019-03-04T00:36:09.279Z,4.20
2019-03-04T00:38:37.686Z,4.40
2019-03-04T00:41:06.151Z,4.23
2019-03-04T00:43:34.554Z,4.37
2019-03-04T00:46:03.043Z,4.30
2019-03-04T00:48:31.497Z,4.00
2019-03-04T00:50:59.890Z,4.17
2019-03-04T00:53:28.290Z,4.30
2019-03-04T00:55:56.742Z,4.10
2019-03-04T00:58:25.132Z,4.40
2019-03-04T01:00:53.555Z,4.40
2019-03-04T01:03:21.933Z,4.17
2019-03-04T01:05:50.428Z,4.27
2019-03-04T01:08:18.815Z,4.40
2019-03-04T01:10:47.243Z,4.57
2019-03-04T01:13:15.625Z,4.50
2019-03-04T01:15:44.057Z,4.30
2019-03-04T01:18:12.443Z,4.33
2019-03-04T01:20:40.840Z,4.23
2019-03-04T01:23:09.313Z,4.90
2019-03-04T01:25:37.713Z,4.40
2019-03-04T01:28:06.105Z,4.30
2019-03-04T01:30:34.490Z,4.33
2019-03-04T01:33:02.886Z,4.20
2019-03-04T01:35:31.270Z,4.17
2019-03-04T01:37:59.654Z,4.23
2019-03-04T01:40:28.046Z,4.20
2019-03-04T01:42:56.434Z,4.90
2019-03-04T01:45:24.828Z,3.83
2019-03-04T01:47:53.211Z,4.37
2019-03-04T01:50:21.614Z,4.10
2019-03-04T01:52:50.000Z,4.33
2019-03-04T01:55:18.853Z,4.30
2019-03-04T01:57:47.285Z,3.73
2019-03-04T02:00:17.170Z,4.43
2019-03-04T02:02:45.733Z,4.17
2019-03-04T02:05:14.397Z,4.20
2019-03-04T02:07:42.784Z,4.87
2019-03-04T02:10:13.330Z,4.30
2019-03-04T02:12:41.785Z,3.60
2019-03-04T02:15:10.879Z,4.50
2019-03-04T02:17:39.347Z,4.63
2019-03-04T02:20:10.443Z,4.70
2019-03-04T02:22:38.025Z,4.60
2019-03-04T02:25:09.662Z,4.30
2019-03-04T02:27:38.042Z,4.13
2019-03-04T02:30:12.733Z,4.13
2019-03-04T02:32:41.170Z,4.47
2019-03-04T02:35:09.557Z,3.90
2019-03-04T02:37:37.924Z,4.30
2019-03-04T02:40:07.686Z,4.50
2019-03-04T02:42:36.070Z,4.40
2019-03-04T02:45:06.912Z,4.20
2019-03-04T02:47:35.307Z,4.23
2019-03-04T02:50:04.583Z,4.00
2019-03-04T02:52:32.948Z,3.70
2019-03-04T02:55:01.376Z,4.03
2019-03-04T02:57:29.754Z,4.40
2019-03-04T02:59:58.175Z,4.00
2019-03-04T03:02:26.685Z,4.17
2019-03-04T03:04:55.122Z,4.10
2019-03-04T03:07:23.501Z,3.80
2019-03-04T03:09:52.024Z,3.73
2019-03-04T03:12:20.405Z,4.03
2019-03-04T03:14:48.817Z,3.73
2019-03-04T03:17:17.204Z,4.40
2019-03-04T03:19:45.600Z,3.87
2019-03-04T03:22:13.991Z,3.80
2019-03-04T03:24:42.429Z,3.93
2019-03-04T03:27:10.824Z,3.83
2019-03-04T03:29:39.251Z,3.63
2019-03-04T03:32:07.687Z,4.13
2019-03-04T03:34:36.113Z,3.93
2019-03-04T03:37:04.491Z,3.63
2019-03-04T03:39:32.882Z,3.53
2019-03-04T03:42:01.273Z,4.20
2019-03-04T03:44:29.667Z,3.50
2019-03-04T03:46:58.101Z,3.60
2019-03-04T03:49:26.531Z,3.80
2019-03-04T03:51:54.964Z,3.80
2019-03-04T03:54:23.351Z,3.80
2019-03-04T03:56:51.784Z,3.47
2019-03-04T03:59:20.168Z,3.53
2019-03-04T04:01:48.676Z,3.67
2019-03-04T04:04:17.070Z,3.60
2019-03-04T04:06:45.488Z,3.93
2019-03-04T04:09:13.879Z,3.60
2019-03-04T04:11:42.405Z,3.80
2019-03-04T04:14:10.804Z,3.63
2019-03-04T04:16:39.191Z,3.43
2019-03-04T04:19:07.602Z,3.47
2019-03-04T04:21:35.973Z,3.60
2019-03-04T04:24:04.364Z,3.30
2019-03-04T04:26:32.753Z,3.27
2019-03-04T04:29:05.865Z,3.77
2019-03-04T04:31:34.265Z,3.50
2019-03-04T04:34:02.693Z,4.00
2019-03-04T04:36:31.089Z,3.63
2019-03-04T04:39:01.449Z,3.40
2019-03-04T04:41:29.644Z,3.67
2019-03-04T04:43:58.038Z,3.77
2019-03-04T04:46:48.028Z,3.07
2019-03-04T04:49:16.409Z,3.57
2019-03-04T04:51:44.802Z,3.40
2019-03-04T04:54:13.188Z,3.13
2019-03-04T04:56:41.683Z,3.23
2019-03-04T04:59:10.075Z,3.43
2019-03-04T05:01:38.468Z,3.47
2019-03-04T05:04:06.859Z,3.90
2019-03-04T05:06:35.244Z,3.47
2019-03-04T05:09:04.800Z,3.37
2019-03-04T05:11:33.215Z,3.33
2019-03-04T05:14:01.609Z,3.50
2019-03-04T05:16:30.008Z,3.37
2019-03-04T05:18:58.393Z,4.00
2019-03-04T05:21:27.278Z,3.43
2019-03-04T05:23:55.664Z,3.27
2019-03-04T05:26:24.070Z,3.33
2019-03-04T05:28:52.450Z,3.20
2019-03-04T05:31:21.440Z,3.37
2019-03-04T05:33:49.823Z,3.27
2019-03-04T05:36:18.404Z,3.77
2019-03-04T05:38:46.812Z,3.17
2019-03-04T05:41:15.222Z,3.27
2019-03-04T05:43:43.609Z,3.50
2019-03-04T05:46:12.012Z,3.57
2019-03-04T05:48:40.399Z,3.30
2019-03-04T05:51:08.872Z,3.30
2019-03-04T05:53:37.257Z,3.40
2019-03-04T05:56:05.666Z,3.57
2019-03-04T05:58:34.056Z,2.90
2019-03-04T06:01:17.328Z,3.00
2019-03-04T06:03:48.158Z,3.30
2019-03-04T06:06:18.300Z,3.17
2019-03-04T06:08:46.690Z,3.20
2019-03-04T06:11:15.101Z,3.47
2019-03-04T06:13:43.489Z,3.50
2019-03-04T06:16:11.967Z,3.40
2019-03-04T06:18:40.398Z,4.10
2019-03-04T06:21:08.882Z,3.90
2019-03-04T06:23:37.277Z,4.23
2019-03-04T06:26:05.698Z,5.00
2019-03-04T06:28:34.089Z,5.43
2019-03-04T06:31:02.484Z,5.87
2019-03-04T06:33:30.877Z,6.27
2019-03-04T06:35:59.268Z,5.93
2019-03-04T06:38:27.663Z,6.90
2019-03-04T06:40:56.080Z,7.97
2019-03-04T06:43:24.469Z,7.53
2019-03-04T06:45:52.859Z,7.60
2019-03-04T06:48:21.249Z,8.10
2019-03-04T06:50:51.959Z,8.60
2019-03-04T06:53:29.895Z,8.77
2019-03-04T06:56:18.157Z,10.13
2019-03-04T06:59:04.801Z,9.90
2019-03-04T07:01:42.060Z,10.93
2019-03-04T07:04:16.716Z,11.93
2019-03-04T07:06:45.150Z,11.43
2019-03-04T07:09:13.609Z,12.77
2019-03-04T07:11:42.083Z,11.70
2019-03-04T07:14:10.472Z,11.60
2019-03-04T07:16:40.538Z,12.50
2019-03-04T07:19:08.942Z,11.90
2019-03-04T07:21:37.376Z,12.47
2019-03-04T07:24:05.767Z,11.90
2019-03-04T07:26:34.170Z,11.90
2019-03-04T07:29:02.566Z,12.43
2019-03-04T07:31:30.960Z,13.37
2019-03-04T07:33:59.365Z,12.03
2019-03-04T07:36:27.807Z,13.67
2019-03-04T07:38:57.263Z,13.17
2019-03-04T07:41:26.536Z,12.87
2019-03-04T07:43:54.942Z,13.13
2019-03-04T07:46:23.339Z,12.53
2019-03-04T07:48:51.754Z,13.53
2019-03-04T07:51:20.216Z,12.20
2019-03-04T07:53:48.643Z,12.60
2019-03-04T07:56:17.040Z,13.47
2019-03-04T07:58:45.447Z,12.77
2019-03-04T08:01:13.838Z,13.03
2019-03-04T08:03:42.651Z,11.67
2019-03-04T08:06:11.031Z,12.07
2019-03-04T08:08:40.811Z,12.10
2019-03-04T08:11:30.468Z,11.70
2019-03-04T08:14:02.138Z,11.87
2019-03-04T08:16:30.536Z,11.53
2019-03-04T08:18:58.935Z,11.27
2019-03-04T08:21:27.328Z,11.13
2019-03-04T08:23:55.734Z,11.00
2019-03-04T08:26:24.226Z,10.67
2019-03-04T08:28:52.622Z,10.37
2019-03-04T08:31:21.020Z,10.00
2019-03-04T08:33:49.414Z,9.67
2019-03-04T08:36:17.801Z,9.83
2019-03-04T08:38:46.202Z,10.50
2019-03-04T08:41:14.596Z,10.40
2019-03-04T08:43:42.990Z,9.23
2019-03-04T08:46:11.392Z,9.33
2019-03-04T08:48:39.841Z,9.60
2019-03-04T08:51:08.232Z,9.80
2019-03-04T08:53:36.731Z,9.37
2019-03-04T08:56:05.133Z,8.97
2019-03-04T08:58:34.377Z,8.93
2019-03-04T09:01:03.020Z,9.07
2019-03-04T09:03:31.435Z,8.87
2019-03-04T09:05:59.848Z,8.83
2019-03-04T09:08:28.288Z,8.80
2019-03-04T09:10:56.666Z,8.53
2019-03-04T09:13:25.113Z,8.90
2019-03-04T09:15:53.501Z,8.50
2019-03-04T09:18:21.939Z,8.60
2019-03-04T09:20:50.326Z,8.00
2019-03-04T09:23:18.815Z,7.20
2019-03-04T09:26:05.678Z,6.97
2019-03-04T09:28:34.099Z,7.40
2019-03-04T09:31:02.494Z,7.23
2019-03-04T09:33:30.959Z,7.20
2019-03-04T09:35:59.346Z,6.83
2019-03-04T09:38:27.770Z,6.60
2019-03-04T09:40:56.167Z,6.93
2019-03-04T09:43:24.587Z,6.60
2019-03-04T09:45:52.985Z,6.13
2019-03-04T09:48:21.456Z,6.10
2019-03-04T09:50:49.847Z,5.87
2019-03-04T09:53:18.226Z,5.20
2019-03-04T09:55:46.620Z,5.07
2019-03-04T09:58:15.005Z,5.23
2019-03-04T10:00:46.653Z,4.93
2019-03-04T10:03:41.209Z,5.20
2019-03-04T10:20:33.097Z,4.20
2019-03-04T10:23:25.980Z,4.20
2019-03-04T10:26:31.126Z,4.10
2019-03-04T10:29:08.673Z,3.70
2019-03-04T10:31:55.109Z,3.80
2019-03-04T10:34:29.518Z,3.63
2019-03-04T10:37:09.745Z,3.50
2019-03-04T10:39:50.118Z,3.20
2019-03-04T10:42:21.770Z,3.20
2019-03-04T10:45:01.900Z,2.70
2019-03-04T10:47:30.300Z,3.20
2019-03-04T10:49:58.690Z,2.70
2019-03-04T10:52:27.076Z,2.77
2019-03-04T10:54:55.462Z,2.90
2019-03-04T10:57:23.847Z,2.67
2019-03-04T10:59:52.226Z,2.67
2019-03-04T11:02:20.737Z,2.60
2019-03-04T11:04:49.131Z,2.33
2019-03-04T11:07:17.536Z,2.43
2019-03-04T11:09:45.921Z,2.53
2019-03-04T11:12:14.353Z,2.20
2019-03-04T11:14:42.738Z,2.50
2019-03-04T11:17:11.160Z,1.83
2019-03-04T11:19:39.547Z,2.20
2019-03-04T11:22:08.052Z,2.10
2019-03-04T11:24:37.477Z,2.30
2019-03-04T11:27:05.922Z,1.63
2019-03-04T11:29:34.321Z,1.60
2019-03-04T11:32:03.001Z,1.37
2019-03-04T11:34:31.384Z,1.50
2019-03-04T11:36:59.794Z,1.77
2019-03-04T11:39:47.703Z,1.50
2019-03-04T11:42:16.096Z,1.40
2019-03-04T11:44:44.484Z,1.40
2019-03-04T11:47:12.934Z,1.20
2019-03-04T11:49:41.327Z,1.60
2019-03-04T11:52:09.738Z,1.60
2019-03-04T11:54:38.138Z,1.80
2019-03-04T11:57:06.526Z,1.83
2019-03-04T11:59:34.993Z,1.80
2019-03-04T12:02:03.955Z,1.70
2019-03-04T12:04:32.354Z,2.13
2019-03-04T12:07:00.740Z,2.30
2019-03-04T12:09:29.135Z,2.27
2019-03-04T12:11:57.514Z,2.47
2019-03-04T12:14:25.899Z,2.10
2019-03-04T12:16:54.303Z,2.10
2019-03-04T12:19:22.701Z,2.33
2019-03-04T12:21:51.111Z,2.40
2019-03-04T12:24:19.499Z,2.60
2019-03-04T12:26:47.957Z,2.87
2019-03-04T12:29:16.310Z,2.70
2019-03-04T12:32:01.444Z,3.13
2019-03-04T12:34:29.835Z,2.97
2019-03-04T12:36:58.250Z,2.60
2019-03-04T12:39:26.651Z,2.70
2019-03-04T12:41:55.148Z,2.70
2019-03-04T12:44:23.537Z,3.03
2019-03-04T12:46:51.946Z,2.57
2019-03-04T12:49:20.344Z,2.90
2019-03-04T12:51:48.750Z,2.80
2019-03-04T12:54:17.132Z,3.00
2019-03-04T12:56:45.557Z,3.00
2019-03-04T12:59:13.939Z,3.07
2019-03-04T13:01:42.331Z,2.63
2019-03-04T13:04:10.898Z,3.20
2019-03-04T13:06:39.288Z,2.73
2019-03-04T13:09:14.620Z,2.30
2019-03-04T13:11:37.814Z,3.33
2019-03-04T13:14:06.211Z,3.00
2019-03-04T13:16:34.606Z,2.40
2019-03-04T13:19:02.999Z,2.60
2019-03-04T13:21:31.390Z,2.83
2019-03-04T13:23:59.785Z,2.90
2019-03-04T13:26:28.165Z,3.07
2019-03-04T13:28:56.563Z,2.50
2019-03-04T13:31:24.974Z,3.03
2019-03-04T13:33:53.377Z,2.80
2019-03-04T13:36:21.767Z,2.90
2019-03-04T13:38:50.166Z,2.60
2019-03-04T13:41:18.554Z,2.93
2019-03-04T13:43:46.988Z,3.00
2019-03-04T13:46:15.375Z,2.93
2019-03-04T13:48:43.784Z,2.87
2019-03-04T13:51:12.240Z,2.60
2019-03-04T13:53:40.654Z,2.77
2019-03-04T13:56:09.039Z,2.80
2019-03-04T13:58:37.466Z,2.60
2019-03-04T14:01:06.226Z,2.83
2019-03-04T14:03:34.753Z,2.50
2019-03-04T14:06:03.352Z,2.60
2019-03-04T14:08:31.784Z,2.50
2019-03-04T14:11:00.176Z,2.30
2019-03-04T14:13:28.676Z,2.50
2019-03-04T14:15:58.150Z,2.33
2019-03-04T14:18:26.549Z,2.27
2019-03-04T14:20:55.003Z,2.60
2019-03-04T14:23:23.429Z,2.40
2019-03-04T14:25:51.837Z,2.47
2019-03-04T14:28:20.235Z,2.50
2019-03-04T14:30:48.626Z,2.70
2019-03-04T14:33:17.188Z,2.57
2019-03-04T14:35:45.689Z,2.47
2019-03-04T14:38:14.082Z,2.50
2019-03-04T14:40:42.481Z,2.20
2019-03-04T14:43:10.963Z,2.70
2019-03-04T14:45:39.352Z,2.20
2019-03-04T14:48:07.747Z,2.10
2019-03-04T14:50:36.199Z,2.57
2019-03-04T14:53:04.589Z,3.10
2019-03-04T14:55:35.115Z,2.80
2019-03-04T14:58:03.585Z,2.77
2019-03-04T15:00:36.678Z,2.60
2019-03-04T15:03:05.255Z,2.77
2019-03-04T15:05:33.647Z,2.53
2019-03-04T15:08:02.064Z,2.87
2019-03-04T15:10:30.447Z,2.77
2019-03-04T15:12:58.867Z,2.60
2019-03-04T15:15:28.498Z,2.50
2019-03-04T15:17:56.958Z,2.90
2019-03-04T15:20:26.769Z,3.10
2019-03-04T15:22:55.196Z,2.80
2019-03-04T15:25:30.466Z,2.90
2019-03-04T15:28:14.345Z,3.60
2019-03-04T15:30:45.139Z,3.30
2019-03-04T15:33:18.223Z,3.00
2019-03-04T15:35:43.683Z,3.67
2019-03-04T15:38:12.121Z,3.57
2019-03-04T15:40:40.585Z,3.20
2019-03-04T15:43:09.041Z,3.77
2019-03-04T15:45:37.752Z,3.33
2019-03-04T15:48:10.274Z,3.30
2019-03-04T15:50:38.660Z,3.70
2019-03-04T15:53:07.140Z,3.37
2019-03-04T15:55:35.616Z,3.60
2019-03-04T15:58:04.064Z,3.77
2019-03-04T16:00:32.548Z,3.73
2019-03-04T16:03:01.059Z,4.23
2019-03-04T16:05:29.524Z,4.20
2019-03-04T16:08:07.118Z,4.13
2019-03-04T16:10:31.968Z,3.77
2019-03-04T16:13:00.393Z,4.03
2019-03-04T16:15:28.857Z,4.50
2019-03-04T16:17:57.360Z,4.70
2019-03-04T16:20:25.756Z,4.10
2019-03-04T16:22:55.698Z,4.80
2019-03-04T16:25:24.120Z,4.80
2019-03-04T16:28:07.986Z,4.90
2019-03-04T16:30:36.367Z,5.03
2019-03-04T16:33:04.764Z,5.00
2019-03-04T16:35:33.159Z,5.30
2019-03-04T16:38:01.601Z,5.30
2019-03-04T16:40:30.084Z,5.40
2019-03-04T16:42:58.468Z,5.30
2019-03-04T16:45:26.972Z,5.50
2019-03-04T16:47:55.382Z,5.83
2019-03-04T16:50:26.413Z,5.37
2019-03-04T16:53:00.095Z,5.40
2019-03-04T16:55:28.491Z,6.17
2019-03-04T16:57:58.399Z,6.00
2019-03-04T17:00:26.816Z,5.50
2019-03-04T17:02:55.209Z,6.23
2019-03-04T17:05:23.869Z,6.33
2019-03-04T17:07:52.263Z,7.07
2019-03-04T17:10:22.709Z,6.70
2019-03-04T17:12:51.090Z,7.20
2019-03-04T17:15:21.622Z,7.43
2019-03-04T17:17:50.284Z,7.20
2019-03-04T17:20:18.933Z,7.60
2019-03-04T17:22:47.597Z,7.67
2019-03-04T17:25:19.314Z,7.70
2019-03-04T17:27:47.871Z,7.50
2019-03-04T17:30:18.175Z,7.60
2019-03-04T17:32:46.633Z,7.53
2019-03-04T17:35:25.798Z,7.60
2019-03-04T17:37:54.192Z,7.67
2019-03-04T17:40:27.793Z,7.47
2019-03-04T17:42:56.187Z,7.43
2019-03-04T17:45:25.818Z,8.30
2019-03-04T17:47:54.276Z,8.10
2019-03-04T17:50:29.102Z,7.57
2019-03-04T17:52:57.493Z,8.10
2019-03-04T17:55:25.985Z,8.07
2019-03-04T17:57:54.366Z,7.90
2019-03-04T18:00:22.844Z,7.53
2019-03-04T18:02:51.226Z,7.03
2019-03-04T18:05:20.718Z,7.87
2019-03-04T18:07:49.114Z,6.80
2019-03-04T18:10:18.394Z,7.63
2019-03-04T18:12:46.921Z,7.17
2019-03-04T18:15:18.047Z,6.90
2019-03-04T18:17:46.432Z,7.70
2019-03-04T18:20:15.512Z,7.57
2019-03-04T18:22:45.048Z,6.80
2019-03-04T18:25:29.753Z,7.43
2019-03-04T18:28:04.301Z,7.10
2019-03-04T18:30:38.725Z,7.13
2019-03-04T18:33:10.402Z,7.17
2019-03-04T18:36:06.218Z,6.80
2019-03-04T18:39:00.779Z,7.70
2019-03-04T18:41:44.421Z,6.87
2019-03-04T18:44:34.093Z,6.80
2019-03-04T18:47:34.315Z,7.40
2019-03-04T18:50:03.720Z,7.20
2019-03-04T18:52:32.180Z,6.90
2019-03-04T18:55:00.652Z,6.90
2019-03-04T18:57:29.052Z,6.70
2019-03-04T18:59:57.431Z,7.30
2019-03-04T19:02:26.031Z,6.47
2019-03-04T19:04:54.418Z,6.43
2019-03-04T19:07:22.990Z,6.07
2019-03-04T19:09:51.427Z,6.47
2019-03-04T19:12:19.830Z,6.17
2019-03-04T19:14:48.293Z,5.83
2019-03-04T19:17:16.691Z,6.47
2019-03-04T19:19:45.085Z,6.10
2019-03-04T19:22:13.480Z,6.00
2019-03-04T19:24:41.867Z,6.50
2019-03-04T19:27:10.491Z,5.73
2019-03-04T19:29:38.881Z,6.57
2019-03-04T19:32:07.268Z,6.77
2019-03-04T19:34:35.653Z,6.13
2019-03-04T19:37:04.287Z,5.90
2019-03-04T19:39:33.005Z,6.30
2019-03-04T19:42:04.221Z,5.93
2019-03-04T19:44:32.720Z,5.80
2019-03-04T19:47:01.115Z,5.80
2019-03-04T19:49:29.510Z,5.67
2019-03-04T19:51:57.906Z,5.77
2019-03-04T19:54:26.292Z,6.83
2019-03-04T19:56:54.688Z,4.93
2019-03-04T19:59:23.096Z,5.33
2019-03-04T20:01:51.504Z,5.47
2019-03-04T20:04:19.889Z,5.87
2019-03-04T20:06:48.303Z,5.47
2019-03-04T20:09:16.724Z,5.60
2019-03-04T20:11:45.137Z,5.73
2019-03-04T20:14:13.535Z,5.40
2019-03-04T20:16:41.966Z,5.03
2019-03-04T20:19:10.354Z,4.93
2019-03-04T20:21:38.771Z,5.17
2019-03-04T20:24:07.175Z,4.90
2019-03-04T20:26:35.590Z,5.00
2019-03-04T20:29:04.059Z,5.00
2019-03-04T20:31:32.507Z,5.10
2019-03-04T20:34:00.898Z,4.70
2019-03-04T20:36:29.345Z,4.97
2019-03-04T20:38:57.735Z,5.03
2019-03-04T20:41:26.206Z,4.63
2019-03-04T20:43:54.584Z,4.90
2019-03-04T20:46:23.098Z,4.77
2019-03-04T20:48:51.489Z,5.43
2019-03-04T20:51:19.901Z,4.70
2019-03-04T20:53:48.291Z,4.90
2019-03-04T20:56:16.735Z,4.83
2019-03-04T20:58:45.206Z,4.77
2019-03-04T21:01:13.669Z,5.17
2019-03-04T21:03:42.069Z,4.70
2019-03-04T21:06:10.723Z,4.77
2019-03-04T21:08:39.120Z,4.70
2019-03-04T21:11:07.762Z,4.47
2019-03-04T21:13:36.228Z,4.77
2019-03-04T21:16:04.686Z,4.30
2019-03-04T21:18:33.078Z,4.37
2019-03-04T21:21:01.936Z,4.70
2019-03-04T21:23:30.332Z,4.47
2019-03-04T21:26:07.988Z,4.20
2019-03-04T21:28:56.667Z,4.13
2019-03-04T21:31:40.596Z,4.17
2019-03-04T21:34:15.063Z,4.50
2019-03-04T21:37:07.804Z,3.90
2019-03-04T21:39:39.497Z,3.90
2019-03-04T21:42:11.405Z,4.00
2019-03-04T21:44:54.890Z,4.07
2019-03-04T21:47:35.327Z,3.97
2019-03-04T21:50:04.875Z,3.90
2019-03-04T21:52:42.957Z,3.67
2019-03-04T21:55:14.599Z,3.77
2019-03-04T21:57:46.029Z,3.50
2019-03-04T22:00:18.091Z,3.90
2019-03-04T22:02:58.479Z,3.70
2019-03-04T22:05:28.484Z,3.47
2019-03-04T22:07:56.852Z,3.97
2019-03-04T22:10:25.285Z,3.90
2019-03-04T22:12:53.662Z,3.90
2019-03-04T22:15:22.080Z,3.30
2019-03-04T22:17:50.465Z,3.60
2019-03-04T22:20:18.986Z,3.70
2019-03-04T22:22:47.371Z,3.30
2019-03-04T22:25:15.849Z,3.30
2019-03-04T22:27:44.298Z,3.37
2019-03-04T22:30:15.452Z,3.20
2019-03-04T22:32:43.931Z,3.33
2019-03-04T22:35:16.910Z,3.40
2019-03-04T22:37:44.375Z,3.33
2019-03-04T22:40:15.622Z,3.40
2019-03-04T22:42:44.009Z,3.10
2019-03-04T22:45:14.829Z,3.23
2019-03-04T22:47:43.566Z,3.20
2019-03-04T22:53:14.159Z,2.80
2019-03-04T22:55:42.577Z,3.00
2019-03-04T22:58:10.942Z,3.00
2019-03-04T23:00:50.149Z,2.60
2019-03-04T23:03:19.416Z,3.00
2019-03-04T23:06:02.938Z,2.90
2019-03-04T23:08:31.327Z,3.00
2019-03-04T23:10:59.748Z,3.10
2019-03-04T23:13:49.517Z,2.83
2019-03-04T23:16:20.963Z,3.30
2019-03-04T23:18:49.350Z,3.00
2019-03-04T23:21:17.772Z,2.83
2019-03-04T23:23:46.192Z,2.60
2019-03-04T23:26:14.618Z,2.83
2019-03-04T23:28:43.017Z,2.63
2019-03-04T23:31:11.751Z,2.57
2019-03-04T23:33:40.147Z,2.50
2019-03-04T23:36:08.570Z,2.63
2019-03-04T23:38:36.958Z,2.40
2019-03-04T23:41:05.350Z,3.00
2019-03-04T23:43:33.773Z,2.80
2019-03-04T23:46:02.259Z,3.30
2019-03-04T23:48:30.659Z,2.80
2019-03-04T23:50:59.062Z,3.53
2019-03-04T23:53:27.609Z,3.23
2019-03-04T23:55:56.012Z,3.50
2019-03-04T23:58:24.396Z,3.30
